AirNav   Air Wisconsin pilot careers
 
 337 users online  

WA54 1001 Fourth Avenue Plaza Heliport
Seattle, Washington, USA

GOING TO SEATTLE?


FAA INFORMATION EFFECTIVE 21 JUNE 2018

Location

FAA Identifier: WA54
Lat/Long: 47-36-24.3530N / 122-20-01.4550W
47-36.405883N / 122-20.024250W
47.6067647 / -122.3337375
(estimated)
Elevation: 716 ft. / 218 m (estimated)
Variation: 20E (1985)
Time zone: UTC -7 (UTC -8 during Standard Time)
Zip code: 98154

Heliport Operations

Heliport use: Private use. Permission required prior to landing
Activation date: 08/1969
Control tower: no
ARTCC: SEATTLE CENTER
FSS: SEATTLE FLIGHT SERVICE STATION
Attendance: CONTINUOUS
Wind indicator: yes
Segmented circle: yes
Landing fee: yes

Heliport Communications

WX ASOS at BFI (5 nm S): 127.75 (206-763-6904)
WX ASOS at RNT (8 nm SE): 126.95 (425-255-6080)
WX ASOS at SEA (9 nm S): PHONE 206-214-2592
WX ASOS at PAE (18 nm N): 128.65 (425-355-6192)
WX AWOS-3PT at PWT (19 nm W): 121.2 (360-674-2811)

Nearby radio navigation aids

VOR radial/distance  VOR name  Freq  Var
SEAr336/10.3SEATTLE VORTAC116.8019E
PAEr167/18.9PAINE VOR/DME110.6020E
TCMr357/28.1MCCHORD VORTAC109.6015E

 
NDB name  Hdg/Dist  Freq  Var  ID
NOLLA109/2.736215EBF -... ..-.
PARKK331/4.628115EHPK .... .--. -.-
GRAYE006/29.521616EGRF --. .-. ..-.
LACOMAS358/37.132816ELAC .-.. .- -.-.
MASON COUNTY036/37.434819EMNC -- -. -.-.

Heliport Services

Airframe service: NONE
Powerplant service: NONE
Bottled oxygen: NONE
Bulk oxygen: NONE

Runway Information

Helipad H1

Dimensions: 35 x 35 ft. / 11 x 11 m
Surface: concrete, in fair condition
ROOFTOP.
Runway edge lights: ENTR BNDRY HELI OUTLINED IN FLORESCENT LGTS WHICH ARE RAISED 8 INCHES ABOVE PAD SFC.
Latitude: 47-36.405883N
Longitude: 122-20.024250W
Elevation: 716.0 ft.
Traffic pattern: rightleft
Markings: none, in fair condition
Obstructions: 25 ft. ant, 60 ft. from runway, 2:1 slope to clear
LGTD RADIO ANTENNAS WEST EDGE OF BLDG.

Heliport Ownership and Management from official FAA records

Ownership: Privately-owned
Owner: 1001 FOURTH AVE ASSOCIATES
1001 4TH AVE
SEATTLE, WA 98154
Phone 206-583-5058
Manager: CAROLYN NEER
1001 4TH AVE
SEATTLE, WA 98154
Phone 206-623-6936

Additional Remarks

CTC PROPERTY MGMT ON 206-623-6936 FOR PRIOR PERMISSION.

Instrument Procedures

There are no published instrument procedures at WA54.

Some nearby airports with instrument procedures:

KBFI - Boeing Field/King County International Airport (5 nm S)
KRNT - Renton Municipal Airport (8 nm SE)
KSEA - Seattle-Tacoma International Airport (9 nm S)
S50 - Auburn Municipal Airport (17 nm S)
KPAE - Snohomish County Airport (Paine Field) (18 nm N)
KPWT - Bremerton National Airport (19 nm W)
 
Loc | Ops | Rwys | IFR | FBO | Links
Com | Nav | Svcs | Stats | Notes

AirNav Hotels Sweepstakes
 
Area around WA54 (1001 Fourth Avenue Plaza Heliport)
 
Road maps at: MapQuest Bing Google
 
Aerial photo
No photo
 
Sectional chart

 
Airport distance calculator
Flying to 1001 Fourth Avenue Plaza Heliport? Find the distance to fly.

From to WA54

Sunrise and sunset
Times for 21-Jun-2018
 Local
(UTC-7)
 Zulu
(UTC)
Morning civil twilight04:3211:32
Sunrise05:1212:12
Sunset21:1004:10
Evening civil twilight21:5004:50

Current date and time
Zulu (UTC)  21-Jun-2018 09:10:39
Local (UTC-7)  21-Jun-2018 02:10:39
 
METAR
KBFI 
3nm S 
210853Z 16009KT 10SM OVC014 16/12 A3003 RMK AO2 SLP168 T01610122 51030 $
KRNT 
8nm SE 
210853Z AUTO 18007KT 10SM OVC014 17/13 A3003 RMK AO2 SLP172 T01670133 51029
KSEA 
9nm S 
210853Z 21009KT 10SM OVC008 16/12 A3003 RMK AO2 SLP174 T01560122 51026
KPWT 
18nm W 
210756Z AUTO 20010KT 10SM OVC008 14/12 A3001 RMK AO2 SLP175 T01390122 403110133
KPAE 
19nm N 
210853Z AUTO 14010KT 10SM BKN110 16/13 A3002 RMK AO2 SLP162 T01560133 51027
TAF
KBFI 
3nm S 
210758Z 2108/2206 19006KT P6SM OVC012 FM211600 16006KT P6SM OVC018 FM211800 22007KT P6SM OVC030 FM212100 22007KT P6SM BKN040 FM220000 22007KT P6SM SCT040 FM220500 18006KT P6SM OVC035
KSEA 
9nm S 
210759Z 2108/2212 21010KT P6SM OVC010 FM211600 18008KT P6SM OVC015 FM211800 22007KT P6SM OVC025 FM212100 22007KT P6SM BKN035 FM220000 22007KT P6SM SCT040 FM220500 18006KT P6SM OVC030
KPWT 
18nm W 
210800Z 2108/2206 20010KT P6SM OVC008 FM211400 18008KT P6SM OVC012 FM211800 22007KT P6SM OVC030 FM212100 22007KT P6SM BKN040 FM220000 22007KT P6SM SCT040 FM220500 18006KT P6SM OVC035
KPAE 
19nm N 
210520Z 2106/2206 VRB04KT P6SM BKN250 FM211000 21010KT P6SM BKN010 FM211600 18008KT P6SM OVC015 FM211800 22007KT P6SM OVC025 FM212100 22007KT P6SM BKN035 FM220050 22007KT P6SM SCT040 FM220500 18006KT P6SM OVC030
NOTAMs
Click for the latest NOTAMs
NOTAMs are issued by the DoD/FAA and will open in a separate window not controlled by AirNav.

 

 
 

Would you like to see your business listed on this page?

 If your business provides an interesting product or service to pilots, flight crews, aircraft, or users of the 1001 Fourth Avenue Plaza Heliport, you should consider listing it here.  To start the listing process, click on the button below
 
Add a business
 

Other Pages about 1001 Fourth Avenue Plaza Heliport

Update a link
 
Copyright © AirNav, LLC. All rights reserved. Privacy Policy  Contact